sensor_id;sensor_type;location;lat;lon;timestamp;pressure;altitude;pressure_sealevel;temperature;humidity
7075;BME280;3578;51.568;6.932;2023-04-28T00:01:17;54071.84;;;-144.14;48.16
7075;BME280;3578;51.568;6.932;2023-04-28T00:03:44;54099.91;;;-144.14;48.02
7075;BME280;3578;51.568;6.932;2023-04-28T00:06:13;54103.91;;;-144.14;50.54
7075;BME280;3578;51.568;6.932;2023-04-28T00:08:40;54101.91;;;-144.14;49.97
7075;BME280;3578;51.568;6.932;2023-04-28T00:11:08;54105.94;;;-144.14;49.56
7075;BME280;3578;51.568;6.932;2023-04-28T00:13:37;54051.81;;;-144.14;53.84
7075;BME280;3578;51.568;6.932;2023-04-28T00:16:05;54119.97;;;-144.14;57.60
7075;BME280;3578;51.568;6.932;2023-04-28T00:18:32;54127.97;;;-144.14;59.72
7075;BME280;3578;51.568;6.932;2023-04-28T00:21:00;54087.88;;;-144.14;59.57
7075;BME280;3578;51.568;6.932;2023-04-28T00:23:27;54071.84;;;-144.14;59.13
7075;BME280;3578;51.568;6.932;2023-04-28T00:25:54;54081.88;;;-144.14;62.47
7075;BME280;3578;51.568;6.932;2023-04-28T00:28:22;54091.91;;;-144.14;66.58
7075;BME280;3578;51.568;6.932;2023-04-28T00:30:50;54089.88;;;-144.14;57.77
7075;BME280;3578;51.568;6.932;2023-04-28T00:33:17;54085.88;;;-144.14;59.52
7075;BME280;3578;51.568;6.932;2023-04-28T00:35:44;54087.88;;;-144.14;64.69
7075;BME280;3578;51.568;6.932;2023-04-28T00:38:11;54083.88;;;-144.14;69.24
7075;BME280;3578;51.568;6.932;2023-04-28T00:40:39;54087.88;;;-144.14;70.23
7075;BME280;3578;51.568;6.932;2023-04-28T00:43:06;54071.84;;;-144.14;65.06
7075;BME280;3578;51.568;6.932;2023-04-28T00:45:32;54059.81;;;-144.14;69.73
7075;BME280;3578;51.568;6.932;2023-04-28T00:48:02;54045.78;;;-144.14;72.79
7075;BME280;3578;51.568;6.932;2023-04-28T00:50:29;54017.72;;;-144.14;77.62
7075;BME280;3578;51.568;6.932;2023-04-28T00:52:56;54005.69;;;-144.14;79.62
7075;BME280;3578;51.568;6.932;2023-04-28T00:55:24;54007.69;;;-144.14;78.93
7075;BME280;3578;51.568;6.932;2023-04-28T00:57:52;54025.75;;;-144.14;77.27
7075;BME280;3578;51.568;6.932;2023-04-28T01:00:21;53985.66;;;-144.14;76.66
7075;BME280;3578;51.568;6.932;2023-04-28T01:02:49;53973.63;;;-144.14;73.79
7075;BME280;3578;51.568;6.932;2023-04-28T01:05:18;53975.63;;;-144.14;78.88
7075;BME280;3578;51.568;6.932;2023-04-28T01:07:45;53959.59;;;-144.14;80.53
7075;BME280;3578;51.568;6.932;2023-04-28T01:10:12;53951.56;;;-144.14;83.82
7075;BME280;3578;51.568;6.932;2023-04-28T01:12:39;53909.47;;;-144.14;86.51
7075;BME280;3578;51.568;6.932;2023-04-28T01:15:09;53869.41;;;-144.14;89.24
7075;BME280;3578;51.568;6.932;2023-04-28T01:17:39;53827.31;;;-144.14;90.78
7075;BME280;3578;51.568;6.932;2023-04-28T01:20:08;53751.13;;;-144.14;91.64
7075;BME280;3578;51.568;6.932;2023-04-28T01:22:37;53717.06;;;-144.14;91.93
7075;BME280;3578;51.568;6.932;2023-04-28T01:25:06;53670.97;;;-144.14;91.62
7075;BME280;3578;51.568;6.932;2023-04-28T01:27:33;53514.63;;;-144.14;92.21
7075;BME280;3578;51.568;6.932;2023-04-28T01:30:00;53446.47;;;-144.14;92.93
7075;BME280;3578;51.568;6.932;2023-04-28T01:32:26;53360.28;;;-144.14;93.05
7075;BME280;3578;51.568;6.932;2023-04-28T01:34:53;53354.28;;;-144.14;92.46
7075;BME280;3578;51.568;6.932;2023-04-28T01:37:20;53278.13;;;-144.14;92.77
7075;BME280;3578;51.568;6.932;2023-04-28T01:39:47;53212.00;;;-144.14;93.55
7075;BME280;3578;51.568;6.932;2023-04-28T01:42:16;53093.75;;;-144.14;94.40
7075;BME280;3578;51.568;6.932;2023-04-28T01:44:42;53025.63;;;-144.14;94.58
7075;BME280;3578;51.568;6.932;2023-04-28T01:47:09;52989.56;;;-144.14;94.22
7075;BME280;3578;51.568;6.932;2023-04-28T01:49:36;52927.44;;;-144.14;94.22
7075;BME280;3578;51.568;6.932;2023-04-28T01:52:03;52927.44;;;-144.14;94.21
7075;BME280;3578;51.568;6.932;2023-04-28T01:54:31;52935.44;;;-144.14;93.87
7075;BME280;3578;51.568;6.932;2023-04-28T01:56:58;52873.31;;;-144.14;94.40
7075;BME280;3578;51.568;6.932;2023-04-28T01:59:28;52765.13;;;-144.14;95.07
7075;BME280;3578;51.568;6.932;2023-04-28T02:01:55;52682.97;;;-144.14;95.56
7075;BME280;3578;51.568;6.932;2023-04-28T02:04:22;52614.84;;;-144.14;96.09
7075;BME280;3578;51.568;6.932;2023-04-28T02:06:49;52480.59;;;-144.14;96.54
7075;BME280;3578;51.568;6.932;2023-04-28T02:09:16;52426.50;;;-144.14;96.81
7075;BME280;3578;51.568;6.932;2023-04-28T02:11:43;52244.16;;;-144.14;97.39
7075;BME280;3578;51.568;6.932;2023-04-28T02:14:10;52093.91;;;-144.14;97.62
7075;BME280;3578;51.568;6.932;2023-04-28T02:16:38;51971.69;;;-144.14;98.08
7075;BME280;3578;51.568;6.932;2023-04-28T02:19:05;51815.44;;;-144.14;98.34
7075;BME280;3578;51.568;6.932;2023-04-28T02:21:32;51711.28;;;-144.14;98.62
7075;BME280;3578;51.568;6.932;2023-04-28T02:23:59;51651.19;;;-144.14;98.61
7075;BME280;3578;51.568;6.932;2023-04-28T02:26:26;51529.00;;;-144.14;99.13
7075;BME280;3578;51.568;6.932;2023-04-28T02:28:53;51334.69;;;-144.14;99.66
7075;BME280;3578;51.568;6.932;2023-04-28T02:31:20;51270.59;;;-144.14;99.62
7075;BME280;3578;51.568;6.932;2023-04-28T02:33:48;51284.63;;;-144.14;99.29
7075;BME280;3578;51.568;6.932;2023-04-28T02:36:15;51198.50;;;-144.14;99.68
7075;BME280;3578;51.568;6.932;2023-04-28T02:38:43;51132.41;;;-144.14;99.98
7075;BME280;3578;51.568;6.932;2023-04-28T02:41:10;51128.41;;;-144.14;99.99
7075;BME280;3578;51.568;6.932;2023-04-28T02:43:37;51072.31;;;-144.14;99.85
7075;BME280;3578;51.568;6.932;2023-04-28T02:46:04;51068.31;;;-144.14;99.76
7075;BME280;3578;51.568;6.932;2023-04-28T02:48:31;51090.34;;;-144.14;99.76
7075;BME280;3578;51.568;6.932;2023-04-28T02:51:01;51128.41;;;-144.14;99.40
7075;BME280;3578;51.568;6.932;2023-04-28T02:53:28;51154.44;;;-144.14;99.36
7075;BME280;3578;51.568;6.932;2023-04-28T02:55:55;51134.41;;;-144.14;99.34
7075;BME280;3578;51.568;6.932;2023-04-28T02:58:22;51126.41;;;-144.14;99.52
7075;BME280;3578;51.568;6.932;2023-04-28T03:00:49;51096.34;;;-144.14;99.83
7075;BME280;3578;51.568;6.932;2023-04-28T03:03:16;51042.28;;;-144.14;99.93
7075;BME280;3578;51.568;6.932;2023-04-28T03:05:43;51052.28;;;-144.14;99.93
7075;BME280;3578;51.568;6.932;2023-04-28T03:08:12;50962.16;;;-144.14;100.00
7075;BME280;3578;51.568;6.932;2023-04-28T03:10:39;50882.06;;;-144.14;100.00
7075;BME280;3578;51.568;6.932;2023-04-28T03:13:06;50649.75;;;-144.14;100.00
7075;BME280;3578;51.568;6.932;2023-04-28T03:15:33;50421.47;;;-144.14;100.00
7075;BME280;3578;51.568;6.932;2023-04-28T03:18:00;50385.44;;;-144.14;100.00
7075;BME280;3578;51.568;6.932;2023-04-28T03:20:27;50187.19;;;-144.14;100.00
7075;BME280;3578;51.568;6.932;2023-04-28T03:22:54;50061.06;;;-144.14;100.00
7075;BME280;3578;51.568;6.932;2023-04-28T03:25:22;49946.94;;;-144.14;100.00
7075;BME280;3578;51.568;6.932;2023-04-28T03:27:49;49892.88;;;-144.14;100.00
7075;BME280;3578;51.568;6.932;2023-04-28T03:30:16;49924.91;;;-144.14;100.00
7075;BME280;3578;51.568;6.932;2023-04-28T03:32:43;49826.81;;;-144.14;100.00
7075;BME280;3578;51.568;6.932;2023-04-28T03:35:10;49694.69;;;-144.14;100.00
7075;BME280;3578;51.568;6.932;2023-04-28T03:37:37;49560.53;;;-144.14;100.00
7075;BME280;3578;51.568;6.932;2023-04-28T03:40:06;49592.56;;;-144.14;100.00
7075;BME280;3578;51.568;6.932;2023-04-28T03:42:34;49664.66;;;-144.14;100.00
7075;BME280;3578;51.568;6.932;2023-04-28T03:45:01;49666.66;;;-144.14;100.00
7075;BME280;3578;51.568;6.932;2023-04-28T03:47:28;49632.63;;;-144.14;100.00
7075;BME280;3578;51.568;6.932;2023-04-28T03:49:55;49652.63;;;-144.14;100.00
7075;BME280;3578;51.568;6.932;2023-04-28T03:52:23;49724.69;;;-144.14;100.00
7075;BME280;3578;51.568;6.932;2023-04-28T03:54:50;49702.69;;;-144.14;100.00
7075;BME280;3578;51.568;6.932;2023-04-28T03:57:17;49772.75;;;-144.14;100.00
7075;BME280;3578;51.568;6.932;2023-04-28T03:59:45;49800.78;;;-144.14;100.00
7075;BME280;3578;51.568;6.932;2023-04-28T04:02:12;49804.78;;;-144.14;100.00
7075;BME280;3578;51.568;6.932;2023-04-28T04:04:39;49722.69;;;-144.14;100.00
7075;BME280;3578;51.568;6.932;2023-04-28T04:07:06;49712.69;;;-144.14;100.00
7075;BME280;3578;51.568;6.932;2023-04-28T04:09:33;49798.78;;;-144.14;100.00
7075;BME280;3578;51.568;6.932;2023-04-28T04:12:00;49908.91;;;-144.14;100.00
7075;BME280;3578;51.568;6.932;2023-04-28T04:14:27;49970.97;;;-144.14;100.00
7075;BME280;3578;51.568;6.932;2023-04-28T04:16:56;49988.97;;;-144.14;100.00
7075;BME280;3578;51.568;6.932;2023-04-28T04:19:23;50021.00;;;-144.14;100.00
7075;BME280;3578;51.568;6.932;2023-04-28T04:21:51;50003.00;;;-144.14;100.00
7075;BME280;3578;51.568;6.932;2023-04-28T04:24:18;50005.00;;;-144.14;100.00
7075;BME280;3578;51.568;6.932;2023-04-28T04:26:45;50025.03;;;-144.14;100.00
7075;BME280;3578;51.568;6.932;2023-04-28T04:29:12;49932.91;;;-144.14;100.00
7075;BME280;3578;51.568;6.932;2023-04-28T04:31:39;49870.84;;;-144.14;100.00
7075;BME280;3578;51.568;6.932;2023-04-28T04:34:07;49868.84;;;-144.14;100.00
7075;BME280;3578;51.568;6.932;2023-04-28T04:36:34;49880.88;;;-144.14;100.00
7075;BME280;3578;51.568;6.932;2023-04-28T04:39:01;49802.78;;;-144.14;100.00
7075;BME280;3578;51.568;6.932;2023-04-28T04:41:28;49656.63;;;-144.14;100.00
7075;BME280;3578;51.568;6.932;2023-04-28T04:43:55;49580.56;;;-144.14;100.00
7075;BME280;3578;51.568;6.932;2023-04-28T04:46:22;49550.53;;;-144.14;100.00
7075;BME280;3578;51.568;6.932;2023-04-28T04:48:49;49564.53;;;-144.14;100.00
7075;BME280;3578;51.568;6.932;2023-04-28T04:51:18;49586.56;;;-144.14;100.00
7075;BME280;3578;51.568;6.932;2023-04-28T04:53:45;49636.63;;;-144.14;100.00
7075;BME280;3578;51.568;6.932;2023-04-28T04:56:12;49652.63;;;-144.14;100.00
7075;BME280;3578;51.568;6.932;2023-04-28T04:58:41;49672.66;;;-144.14;100.00
7075;BME280;3578;51.568;6.932;2023-04-28T05:01:08;49662.66;;;-144.14;100.00
7075;BME280;3578;51.568;6.932;2023-04-28T05:03:35;49604.59;;;-144.14;100.00
7075;BME280;3578;51.568;6.932;2023-04-28T05:06:03;49614.59;;;-144.14;100.00
7075;BME280;3578;51.568;6.932;2023-04-28T05:08:31;49608.59;;;-144.14;100.00
7075;BME280;3578;51.568;6.932;2023-04-28T05:10:58;49586.56;;;-144.14;100.00
7075;BME280;3578;51.568;6.932;2023-04-28T05:13:25;49552.53;;;-144.14;100.00
7075;BME280;3578;51.568;6.932;2023-04-28T05:15:52;49532.53;;;-144.14;100.00
7075;BME280;3578;51.568;6.932;2023-04-28T05:18:18;49524.50;;;-144.14;100.00
7075;BME280;3578;51.568;6.932;2023-04-28T05:20:46;49400.41;;;-144.14;100.00
7075;BME280;3578;51.568;6.932;2023-04-28T05:23:13;49390.38;;;-144.14;100.00
7075;BME280;3578;51.568;6.932;2023-04-28T05:25:41;49288.28;;;-144.14;100.00
7075;BME280;3578;51.568;6.932;2023-04-28T05:28:09;49160.19;;;-144.14;100.00
7075;BME280;3578;51.568;6.932;2023-04-28T05:30:36;49104.13;;;-144.14;100.00
7075;BME280;3578;51.568;6.932;2023-04-28T05:33:03;48996.06;;;-144.14;100.00
7075;BME280;3578;51.568;6.932;2023-04-28T05:35:29;48992.06;;;-144.14;100.00
7075;BME280;3578;51.568;6.932;2023-04-28T05:37:57;48932.00;;;-144.14;100.00
7075;BME280;3578;51.568;6.932;2023-04-28T05:40:24;48897.97;;;-144.14;100.00
7075;BME280;3578;51.568;6.932;2023-04-28T05:42:52;48885.97;;;-144.14;100.00
7075;BME280;3578;51.568;6.932;2023-04-28T05:45:19;48831.94;;;-144.14;100.00
7075;BME280;3578;51.568;6.932;2023-04-28T05:47:46;48807.91;;;-144.14;100.00
7075;BME280;3578;51.568;6.932;2023-04-28T05:50:13;48841.94;;;-144.14;100.00
7075;BME280;3578;51.568;6.932;2023-04-28T05:52:40;48833.94;;;-144.14;100.00
7075;BME280;3578;51.568;6.932;2023-04-28T05:55:08;48811.91;;;-144.14;100.00
7075;BME280;3578;51.568;6.932;2023-04-28T05:57:35;48761.88;;;-144.14;100.00
7075;BME280;3578;51.568;6.932;2023-04-28T06:00:05;48745.88;;;-144.14;100.00
7075;BME280;3578;51.568;6.932;2023-04-28T06:02:32;48729.84;;;-144.14;100.00
7075;BME280;3578;51.568;6.932;2023-04-28T06:04:59;48703.84;;;-144.14;100.00
7075;BME280;3578;51.568;6.932;2023-04-28T06:07:26;48691.81;;;-144.14;100.00
7075;BME280;3578;51.568;6.932;2023-04-28T06:09:53;48615.78;;;-144.14;100.00
7075;BME280;3578;51.568;6.932;2023-04-28T06:12:20;48565.75;;;-144.14;100.00
7075;BME280;3578;51.568;6.932;2023-04-28T06:14:47;48529.72;;;-144.14;100.00
7075;BME280;3578;51.568;6.932;2023-04-28T06:17:16;48575.75;;;-144.14;100.00
7075;BME280;3578;51.568;6.932;2023-04-28T06:19:43;48651.81;;;-144.14;100.00
7075;BME280;3578;51.568;6.932;2023-04-28T06:22:09;48647.78;;;-144.14;100.00
7075;BME280;3578;51.568;6.932;2023-04-28T06:24:36;48629.78;;;-144.14;100.00
7075;BME280;3578;51.568;6.932;2023-04-28T06:27:04;48701.84;;;-144.14;100.00
7075;BME280;3578;51.568;6.932;2023-04-28T06:29:31;48719.84;;;-144.14;100.00
7075;BME280;3578;51.568;6.932;2023-04-28T06:31:58;48771.88;;;-144.14;100.00
7075;BME280;3578;51.568;6.932;2023-04-28T06:34:26;48891.97;;;-144.14;100.00
7075;BME280;3578;51.568;6.932;2023-04-28T06:36:57;49028.06;;;-144.14;100.00
7075;BME280;3578;51.568;6.932;2023-04-28T06:39:24;49048.09;;;-144.14;100.00
7075;BME280;3578;51.568;6.932;2023-04-28T06:41:51;49120.16;;;-144.14;100.00
7075;BME280;3578;51.568;6.932;2023-04-28T06:44:18;49188.22;;;-144.14;100.00
7075;BME280;3578;51.568;6.932;2023-04-28T06:46:45;49372.38;;;-144.14;100.00
7075;BME280;3578;51.568;6.932;2023-04-28T06:49:12;49496.47;;;-144.14;100.00
7075;BME280;3578;51.568;6.932;2023-04-28T06:51:40;49482.47;;;-144.14;100.00
7075;BME280;3578;51.568;6.932;2023-04-28T06:54:07;49452.44;;;-144.14;100.00
7075;BME280;3578;51.568;6.932;2023-04-28T06:56:35;49572.56;;;-144.14;100.00
7075;BME280;3578;51.568;6.932;2023-04-28T06:59:01;49720.69;;;-144.14;100.00
7075;BME280;3578;51.568;6.932;2023-04-28T07:01:29;50051.03;;;-144.14;100.00
7075;BME280;3578;51.568;6.932;2023-04-28T07:03:56;50195.22;;;-144.14;100.00
7075;BME280;3578;51.568;6.932;2023-04-28T07:06:23;50385.44;;;-144.14;99.36
7075;BME280;3578;51.568;6.932;2023-04-28T07:08:53;50651.75;;;-144.14;97.94
7075;BME280;3578;51.568;6.932;2023-04-28T07:11:21;50858.03;;;-144.14;96.43
7075;BME280;3578;51.568;6.932;2023-04-28T07:13:48;51024.25;;;-144.14;95.72
7075;BME280;3578;51.568;6.932;2023-04-28T07:16:16;51154.44;;;-144.14;94.36
7075;BME280;3578;51.568;6.932;2023-04-28T07:18:43;51226.53;;;-144.14;94.70
7075;BME280;3578;51.568;6.932;2023-04-28T07:21:10;51314.66;;;-144.14;94.48
7075;BME280;3578;51.568;6.932;2023-04-28T07:23:37;51298.66;;;-144.14;94.41
7075;BME280;3578;51.568;6.932;2023-04-28T07:26:07;51388.78;;;-144.14;93.07
7075;BME280;3578;51.568;6.932;2023-04-28T07:28:34;51416.81;;;-144.14;93.02
7075;BME280;3578;51.568;6.932;2023-04-28T07:31:01;51394.78;;;-144.14;93.36
7075;BME280;3578;51.568;6.932;2023-04-28T07:33:28;51490.94;;;-144.14;92.44
7075;BME280;3578;51.568;6.932;2023-04-28T07:35:55;51567.06;;;-144.14;91.26
7075;BME280;3578;51.568;6.932;2023-04-28T07:38:22;51565.06;;;-144.14;92.08
7075;BME280;3578;51.568;6.932;2023-04-28T07:40:49;51677.22;;;-144.14;90.52
7075;BME280;3578;51.568;6.932;2023-04-28T07:43:18;51823.47;;;-144.14;89.37
7075;BME280;3578;51.568;6.932;2023-04-28T07:45:45;51791.41;;;-144.14;90.12
7075;BME280;3578;51.568;6.932;2023-04-28T07:48:13;51807.44;;;-144.14;89.88
7075;BME280;3578;51.568;6.932;2023-04-28T07:50:40;51833.47;;;-144.14;89.63
7075;BME280;3578;51.568;6.932;2023-04-28T07:53:08;51845.50;;;-144.14;89.24
7075;BME280;3578;51.568;6.932;2023-04-28T07:55:34;51849.50;;;-144.14;90.12
7075;BME280;3578;51.568;6.932;2023-04-28T07:58:02;51939.66;;;-144.14;89.63
7075;BME280;3578;51.568;6.932;2023-04-28T08:00:30;51991.72;;;-144.14;87.86
7075;BME280;3578;51.568;6.932;2023-04-28T08:02:57;52180.06;;;-144.14;86.38
7075;BME280;3578;51.568;6.932;2023-04-28T08:05:24;52292.25;;;-144.14;87.10
7075;BME280;3578;51.568;6.932;2023-04-28T08:07:51;52292.25;;;-144.14;88.11
7075;BME280;3578;51.568;6.932;2023-04-28T08:10:18;52290.25;;;-144.14;87.87
7075;BME280;3578;51.568;6.932;2023-04-28T08:12:45;52222.13;;;-144.14;89.61
7075;BME280;3578;51.568;6.932;2023-04-28T08:15:13;52284.25;;;-144.14;88.65
7075;BME280;3578;51.568;6.932;2023-04-28T08:17:41;52202.09;;;-144.14;90.39
7075;BME280;3578;51.568;6.932;2023-04-28T08:20:09;52230.13;;;-144.14;90.27
7075;BME280;3578;51.568;6.932;2023-04-28T08:22:36;52266.19;;;-144.14;89.19
7075;BME280;3578;51.568;6.932;2023-04-28T08:25:04;52242.16;;;-144.14;89.90
7075;BME280;3578;51.568;6.932;2023-04-28T08:27:31;52296.25;;;-144.14;89.24
7075;BME280;3578;51.568;6.932;2023-04-28T08:29:59;52282.22;;;-144.14;89.66
7075;BME280;3578;51.568;6.932;2023-04-28T08:32:26;52272.22;;;-144.14;90.15
7075;BME280;3578;51.568;6.932;2023-04-28T08:34:54;52382.41;;;-144.14;89.13
7075;BME280;3578;51.568;6.932;2023-04-28T08:37:21;52428.50;;;-144.14;86.75
7075;BME280;3578;51.568;6.932;2023-04-28T08:39:48;52482.59;;;-144.14;87.11
7075;BME280;3578;51.568;6.932;2023-04-28T08:42:15;52508.63;;;-144.14;86.93
7075;BME280;3578;51.568;6.932;2023-04-28T08:44:44;52504.63;;;-144.14;88.02
7075;BME280;3578;51.568;6.932;2023-04-28T08:47:13;52510.66;;;-144.14;88.26
7075;BME280;3578;51.568;6.932;2023-04-28T08:49:40;52636.88;;;-144.14;87.54
7075;BME280;3578;51.568;6.932;2023-04-28T08:52:16;53276.13;;;-144.14;78.70
7075;BME280;3578;51.568;6.932;2023-04-28T08:54:43;53442.47;;;-144.14;78.29
7075;BME280;3578;51.568;6.932;2023-04-28T08:57:10;53568.75;;;-144.14;77.30
7075;BME280;3578;51.568;6.932;2023-04-28T08:59:39;53510.63;;;-144.14;77.23
7075;BME280;3578;51.568;6.932;2023-04-28T09:02:07;53530.66;;;-144.14;78.07
7075;BME280;3578;51.568;6.932;2023-04-28T09:04:34;53530.66;;;-144.14;79.49
7075;BME280;3578;51.568;6.932;2023-04-28T09:07:01;53492.56;;;-144.14;79.28
7075;BME280;3578;51.568;6.932;2023-04-28T09:09:30;53352.28;;;-144.14;82.50
7075;BME280;3578;51.568;6.932;2023-04-28T09:11:59;53262.09;;;-144.14;84.59
7075;BME280;3578;51.568;6.932;2023-04-28T09:14:27;53254.06;;;-144.14;85.29
7075;BME280;3578;51.568;6.932;2023-04-28T09:16:54;53201.97;;;-144.14;85.84
7075;BME280;3578;51.568;6.932;2023-04-28T09:19:21;53246.06;;;-144.14;84.62
7075;BME280;3578;51.568;6.932;2023-04-28T09:21:51;53226.03;;;-144.14;85.74
7075;BME280;3578;51.568;6.932;2023-04-28T09:24:32;53252.06;;;-144.14;85.58
7075;BME280;3578;51.568;6.932;2023-04-28T09:27:02;53290.16;;;-144.14;84.54
7075;BME280;3578;51.568;6.932;2023-04-28T09:29:30;53332.25;;;-144.14;83.38
7075;BME280;3578;51.568;6.932;2023-04-28T09:32:13;53318.22;;;-144.14;84.30
7075;BME280;3578;51.568;6.932;2023-04-28T09:34:43;53370.31;;;-144.14;83.25
7075;BME280;3578;51.568;6.932;2023-04-28T09:37:15;53360.28;;;-144.14;83.36
7075;BME280;3578;51.568;6.932;2023-04-28T09:39:44;53336.25;;;-144.14;83.98
7075;BME280;3578;51.568;6.932;2023-04-28T09:42:31;53322.22;;;-144.14;85.15
7075;BME280;3578;51.568;6.932;2023-04-28T09:44:59;53336.25;;;-144.14;85.07
7075;BME280;3578;51.568;6.932;2023-04-28T09:47:27;53376.34;;;-144.14;83.14
7075;BME280;3578;51.568;6.932;2023-04-28T09:49:56;53322.22;;;-144.14;84.25
7075;BME280;3578;51.568;6.932;2023-04-28T09:52:24;53378.34;;;-144.14;82.96
7075;BME280;3578;51.568;6.932;2023-04-28T09:54:54;53400.38;;;-144.14;84.03
7075;BME280;3578;51.568;6.932;2023-04-28T09:57:22;53394.38;;;-144.14;84.06
7075;BME280;3578;51.568;6.932;2023-04-28T09:59:51;53358.28;;;-144.14;85.41
7075;BME280;3578;51.568;6.932;2023-04-28T10:02:20;53340.25;;;-144.14;84.51
7075;BME280;3578;51.568;6.932;2023-04-28T10:04:48;53330.25;;;-144.14;84.83
7075;BME280;3578;51.568;6.932;2023-04-28T10:07:17;53366.31;;;-144.14;84.06
7075;BME280;3578;51.568;6.932;2023-04-28T10:09:46;53352.28;;;-144.14;86.01
7075;BME280;3578;51.568;6.932;2023-04-28T10:12:17;53296.16;;;-144.14;86.24
7075;BME280;3578;51.568;6.932;2023-04-28T10:14:44;53254.06;;;-144.14;87.04
7075;BME280;3578;51.568;6.932;2023-04-28T10:17:12;53197.97;;;-144.14;87.26
7075;BME280;3578;51.568;6.932;2023-04-28T10:19:40;53183.94;;;-144.14;87.90
7075;BME280;3578;51.568;6.932;2023-04-28T10:22:33;53197.97;;;-144.14;88.44
7075;BME280;3578;51.568;6.932;2023-04-28T10:25:24;53222.00;;;-144.14;87.73
7075;BME280;3578;51.568;6.932;2023-04-28T10:27:53;53226.03;;;-144.14;88.15
7075;BME280;3578;51.568;6.932;2023-04-28T10:30:23;53201.97;;;-144.14;88.53
7075;BME280;3578;51.568;6.932;2023-04-28T10:33:22;53230.03;;;-144.14;87.67
7075;BME280;3578;51.568;6.932;2023-04-28T10:35:49;53284.13;;;-144.14;87.45
7075;BME280;3578;51.568;6.932;2023-04-28T10:38:17;53282.13;;;-144.14;86.58
7075;BME280;3578;51.568;6.932;2023-04-28T10:40:47;53260.09;;;-144.14;87.21
7075;BME280;3578;51.568;6.932;2023-04-28T10:43:34;53258.09;;;-144.14;87.44
7075;BME280;3578;51.568;6.932;2023-04-28T10:46:04;53230.03;;;-144.14;87.57
7075;BME280;3578;51.568;6.932;2023-04-28T10:48:54;53171.91;;;-144.14;88.43
7075;BME280;3578;51.568;6.932;2023-04-28T10:51:26;53203.97;;;-144.14;88.28
7075;BME280;3578;51.568;6.932;2023-04-28T10:54:16;53185.94;;;-144.14;88.58
7075;BME280;3578;51.568;6.932;2023-04-28T10:57:18;53153.88;;;-144.14;88.74
7075;BME280;3578;51.568;6.932;2023-04-28T10:59:48;53135.84;;;-144.14;88.66
7075;BME280;3578;51.568;6.932;2023-04-28T11:02:40;53153.88;;;-144.14;89.43
7075;BME280;3578;51.568;6.932;2023-04-28T11:05:15;53161.91;;;-144.14;88.90
7075;BME280;3578;51.568;6.932;2023-04-28T11:08:31;53101.78;;;-144.14;89.96
7075;BME280;3578;51.568;6.932;2023-04-28T11:11:18;53133.84;;;-144.14;89.88
7075;BME280;3578;51.568;6.932;2023-04-28T11:13:46;53139.84;;;-144.14;89.92
7075;BME280;3578;51.568;6.932;2023-04-28T11:16:17;53099.78;;;-144.14;90.31
7075;BME280;3578;51.568;6.932;2023-04-28T11:18:57;53085.75;;;-144.14;91.00
7075;BME280;3578;51.568;6.932;2023-04-28T11:21:25;53033.63;;;-144.14;91.88
7075;BME280;3578;51.568;6.932;2023-04-28T11:23:54;53071.72;;;-144.14;91.22
7075;BME280;3578;51.568;6.932;2023-04-28T11:26:22;53001.56;;;-144.14;92.57
7075;BME280;3578;51.568;6.932;2023-04-28T11:28:51;52959.50;;;-144.14;93.07
7075;BME280;3578;51.568;6.932;2023-04-28T11:31:20;52965.50;;;-144.14;92.88
7075;BME280;3578;51.568;6.932;2023-04-28T11:33:57;52913.41;;;-144.14;92.70
7075;BME280;3578;51.568;6.932;2023-04-28T11:36:27;52963.50;;;-144.14;92.57
7075;BME280;3578;51.568;6.932;2023-04-28T11:38:56;52941.44;;;-144.14;92.77
7075;BME280;3578;51.568;6.932;2023-04-28T11:41:24;52985.53;;;-144.14;92.98
7075;BME280;3578;51.568;6.932;2023-04-28T11:43:52;52965.50;;;-144.14;92.59
7075;BME280;3578;51.568;6.932;2023-04-28T11:46:23;52995.56;;;-144.14;93.28
7075;BME280;3578;51.568;6.932;2023-04-28T11:49:00;52989.56;;;-144.14;93.23
7075;BME280;3578;51.568;6.932;2023-04-28T11:51:34;52921.41;;;-144.14;93.69
7075;BME280;3578;51.568;6.932;2023-04-28T11:54:03;52873.31;;;-144.14;94.89
7075;BME280;3578;51.568;6.932;2023-04-28T11:56:36;52769.13;;;-144.14;95.59
7075;BME280;3578;51.568;6.932;2023-04-28T11:59:06;52705.00;;;-144.14;96.85
7075;BME280;3578;51.568;6.932;2023-04-28T12:01:45;52654.91;;;-144.14;97.81
7075;BME280;3578;51.568;6.932;2023-04-28T12:04:12;52656.91;;;-144.14;97.89
7075;BME280;3578;51.568;6.932;2023-04-28T12:06:40;52672.94;;;-144.14;96.67
7075;BME280;3578;51.568;6.932;2023-04-28T12:09:17;52674.94;;;-144.14;96.73
7075;BME280;3578;51.568;6.932;2023-04-28T12:11:54;52628.84;;;-144.14;96.67
7075;BME280;3578;51.568;6.932;2023-04-28T12:14:22;52590.78;;;-144.14;97.72
7075;BME280;3578;51.568;6.932;2023-04-28T12:16:51;52570.75;;;-144.14;97.27
7075;BME280;3578;51.568;6.932;2023-04-28T12:19:18;52580.78;;;-144.14;96.70
7075;BME280;3578;51.568;6.932;2023-04-28T12:22:02;52608.81;;;-144.14;96.89
7075;BME280;3578;51.568;6.932;2023-04-28T12:24:30;52568.75;;;-144.14;97.05
7075;BME280;3578;51.568;6.932;2023-04-28T12:27:14;52576.75;;;-144.14;96.97
7075;BME280;3578;51.568;6.932;2023-04-28T12:29:42;52612.81;;;-144.14;96.26
7075;BME280;3578;51.568;6.932;2023-04-28T12:32:12;52642.88;;;-144.14;95.86
7075;BME280;3578;51.568;6.932;2023-04-28T12:34:41;52725.03;;;-144.14;95.34
7075;BME280;3578;51.568;6.932;2023-04-28T12:37:08;52767.13;;;-144.14;93.97
7075;BME280;3578;51.568;6.932;2023-04-28T12:39:36;52797.19;;;-144.14;94.29
7075;BME280;3578;51.568;6.932;2023-04-28T12:42:05;52825.22;;;-144.14;94.29
7075;BME280;3578;51.568;6.932;2023-04-28T12:44:33;52845.28;;;-144.14;93.20
7075;BME280;3578;51.568;6.932;2023-04-28T12:47:03;52897.38;;;-144.14;92.07
7075;BME280;3578;51.568;6.932;2023-04-28T12:49:32;52911.41;;;-144.14;92.68
7075;BME280;3578;51.568;6.932;2023-04-28T12:52:00;52925.44;;;-144.14;91.98
7075;BME280;3578;51.568;6.932;2023-04-28T12:54:27;53001.56;;;-144.14;91.50
7075;BME280;3578;51.568;6.932;2023-04-28T12:56:54;53133.84;;;-144.14;89.81
7075;BME280;3578;51.568;6.932;2023-04-28T12:59:21;53224.03;;;-144.14;87.88
7075;BME280;3578;51.568;6.932;2023-04-28T13:01:49;53310.19;;;-144.14;87.86
7075;BME280;3578;51.568;6.932;2023-04-28T13:04:16;53358.28;;;-144.14;86.61
7075;BME280;3578;51.568;6.932;2023-04-28T13:06:44;53374.31;;;-144.14;86.10